sensor_id;sensor_type;location;lat;lon;timestamp;P1;durP1;ratioP1;P2;durP2;ratioP2
9997;SDS011;5038;53.064;8.624;2023-06-14T00:00:02;5.30;;;2.63;;
9997;SDS011;5038;53.064;8.624;2023-06-14T00:02:32;5.80;;;3.53;;
9997;SDS011;5038;53.064;8.624;2023-06-14T00:05:00;6.43;;;2.90;;
9997;SDS011;5038;53.064;8.624;2023-06-14T00:07:35;5.50;;;3.37;;
9997;SDS011;5038;53.064;8.624;2023-06-14T00:10:05;6.53;;;3.50;;
9997;SDS011;5038;53.064;8.624;2023-06-14T00:12:35;5.67;;;3.30;;
9997;SDS011;5038;53.064;8.624;2023-06-14T00:15:04;5.40;;;3.10;;
9997;SDS011;5038;53.064;8.624;2023-06-14T00:17:33;6.23;;;2.63;;
9997;SDS011;5038;53.064;8.624;2023-06-14T00:20:03;5.60;;;2.90;;
9997;SDS011;5038;53.064;8.624;2023-06-14T00:22:33;8.57;;;3.63;;
9997;SDS011;5038;53.064;8.624;2023-06-14T00:25:03;5.73;;;3.20;;
9997;SDS011;5038;53.064;8.624;2023-06-14T00:27:50;6.00;;;2.90;;
9997;SDS011;5038;53.064;8.624;2023-06-14T00:30:19;5.20;;;3.23;;
9997;SDS011;5038;53.064;8.624;2023-06-14T00:32:47;7.47;;;3.40;;
9997;SDS011;5038;53.064;8.624;2023-06-14T00:35:16;6.20;;;3.50;;
9997;SDS011;5038;53.064;8.624;2023-06-14T00:37:45;6.30;;;3.40;;
9997;SDS011;5038;53.064;8.624;2023-06-14T00:40:13;6.87;;;3.23;;
9997;SDS011;5038;53.064;8.624;2023-06-14T00:42:44;5.67;;;3.20;;
9997;SDS011;5038;53.064;8.624;2023-06-14T00:45:14;5.37;;;2.77;;
9997;SDS011;5038;53.064;8.624;2023-06-14T00:47:42;6.27;;;3.13;;
9997;SDS011;5038;53.064;8.624;2023-06-14T00:50:11;6.70;;;3.77;;
9997;SDS011;5038;53.064;8.624;2023-06-14T00:52:39;5.93;;;3.20;;
9997;SDS011;5038;53.064;8.624;2023-06-14T00:55:08;5.73;;;3.17;;
9997;SDS011;5038;53.064;8.624;2023-06-14T00:57:36;5.77;;;3.30;;
9997;SDS011;5038;53.064;8.624;2023-06-14T01:00:06;5.37;;;2.80;;
9997;SDS011;5038;53.064;8.624;2023-06-14T01:02:38;8.00;;;3.60;;
9997;SDS011;5038;53.064;8.624;2023-06-14T01:05:08;6.50;;;3.50;;
9997;SDS011;5038;53.064;8.624;2023-06-14T01:07:43;6.90;;;3.30;;
9997;SDS011;5038;53.064;8.624;2023-06-14T01:10:28;9.07;;;3.33;;
9997;SDS011;5038;53.064;8.624;2023-06-14T01:13:05;6.93;;;3.43;;
9997;SDS011;5038;53.064;8.624;2023-06-14T01:15:38;5.83;;;3.70;;
9997;SDS011;5038;53.064;8.624;2023-06-14T01:18:09;5.67;;;3.30;;
9997;SDS011;5038;53.064;8.624;2023-06-14T01:20:44;6.30;;;3.37;;
9997;SDS011;5038;53.064;8.624;2023-06-14T01:23:17;7.47;;;3.67;;
9997;SDS011;5038;53.064;8.624;2023-06-14T01:25:46;6.20;;;3.27;;
9997;SDS011;5038;53.064;8.624;2023-06-14T01:28:19;7.80;;;3.30;;
9997;SDS011;5038;53.064;8.624;2023-06-14T01:30:51;7.83;;;4.10;;
9997;SDS011;5038;53.064;8.624;2023-06-14T01:33:22;6.33;;;3.80;;
9997;SDS011;5038;53.064;8.624;2023-06-14T01:35:54;7.60;;;3.80;;
9997;SDS011;5038;53.064;8.624;2023-06-14T01:38:25;6.83;;;3.77;;
9997;SDS011;5038;53.064;8.624;2023-06-14T01:40:57;6.77;;;3.67;;
9997;SDS011;5038;53.064;8.624;2023-06-14T01:43:28;6.83;;;3.27;;
9997;SDS011;5038;53.064;8.624;2023-06-14T01:45:58;8.53;;;4.03;;
9997;SDS011;5038;53.064;8.624;2023-06-14T01:48:27;7.30;;;4.10;;
9997;SDS011;5038;53.064;8.624;2023-06-14T01:50:56;7.33;;;4.10;;
9997;SDS011;5038;53.064;8.624;2023-06-14T01:53:26;6.00;;;3.83;;
9997;SDS011;5038;53.064;8.624;2023-06-14T01:55:55;5.50;;;3.40;;
9997;SDS011;5038;53.064;8.624;2023-06-14T01:58:23;8.50;;;4.40;;
9997;SDS011;5038;53.064;8.624;2023-06-14T02:00:52;7.53;;;4.57;;
9997;SDS011;5038;53.064;8.624;2023-06-14T02:03:21;6.30;;;4.17;;
9997;SDS011;5038;53.064;8.624;2023-06-14T02:05:51;7.43;;;3.73;;
9997;SDS011;5038;53.064;8.624;2023-06-14T02:08:20;7.37;;;3.63;;
9997;SDS011;5038;53.064;8.624;2023-06-14T02:10:50;7.23;;;4.10;;
9997;SDS011;5038;53.064;8.624;2023-06-14T02:13:20;7.60;;;4.10;;
9997;SDS011;5038;53.064;8.624;2023-06-14T02:15:49;7.73;;;4.10;;
9997;SDS011;5038;53.064;8.624;2023-06-14T02:18:21;10.00;;;4.60;;
9997;SDS011;5038;53.064;8.624;2023-06-14T02:20:49;7.80;;;4.10;;
9997;SDS011;5038;53.064;8.624;2023-06-14T02:23:17;8.23;;;4.60;;
9997;SDS011;5038;53.064;8.624;2023-06-14T02:25:45;6.67;;;4.00;;
9997;SDS011;5038;53.064;8.624;2023-06-14T02:28:15;7.90;;;4.20;;
9997;SDS011;5038;53.064;8.624;2023-06-14T02:30:43;6.63;;;4.57;;
9997;SDS011;5038;53.064;8.624;2023-06-14T02:33:13;7.60;;;4.00;;
9997;SDS011;5038;53.064;8.624;2023-06-14T02:35:41;7.97;;;5.10;;
9997;SDS011;5038;53.064;8.624;2023-06-14T02:38:09;7.17;;;4.23;;
9997;SDS011;5038;53.064;8.624;2023-06-14T02:40:38;7.53;;;4.17;;
9997;SDS011;5038;53.064;8.624;2023-06-14T02:43:08;7.23;;;5.13;;
9997;SDS011;5038;53.064;8.624;2023-06-14T02:45:39;7.40;;;4.83;;
9997;SDS011;5038;53.064;8.624;2023-06-14T02:48:07;6.33;;;3.90;;
9997;SDS011;5038;53.064;8.624;2023-06-14T02:50:36;6.43;;;4.10;;
9997;SDS011;5038;53.064;8.624;2023-06-14T02:53:04;6.50;;;4.40;;
9997;SDS011;5038;53.064;8.624;2023-06-14T02:55:33;6.40;;;4.23;;
9997;SDS011;5038;53.064;8.624;2023-06-14T02:58:06;8.47;;;4.63;;
9997;SDS011;5038;53.064;8.624;2023-06-14T03:00:34;7.53;;;4.93;;
9997;SDS011;5038;53.064;8.624;2023-06-14T03:03:05;8.60;;;4.93;;
9997;SDS011;5038;53.064;8.624;2023-06-14T03:05:43;7.83;;;5.23;;
9997;SDS011;5038;53.064;8.624;2023-06-14T03:08:15;6.77;;;4.60;;
9997;SDS011;5038;53.064;8.624;2023-06-14T03:10:48;7.37;;;4.20;;
9997;SDS011;5038;53.064;8.624;2023-06-14T03:13:17;6.57;;;4.37;;
9997;SDS011;5038;53.064;8.624;2023-06-14T03:15:49;7.67;;;5.40;;
9997;SDS011;5038;53.064;8.624;2023-06-14T03:18:20;7.30;;;4.47;;
9997;SDS011;5038;53.064;8.624;2023-06-14T03:20:53;8.27;;;4.73;;
9997;SDS011;5038;53.064;8.624;2023-06-14T03:23:24;9.97;;;5.27;;
9997;SDS011;5038;53.064;8.624;2023-06-14T03:25:53;6.80;;;4.90;;
9997;SDS011;5038;53.064;8.624;2023-06-14T03:28:22;8.60;;;4.83;;
9997;SDS011;5038;53.064;8.624;2023-06-14T03:30:51;7.73;;;4.50;;
9997;SDS011;5038;53.064;8.624;2023-06-14T03:33:21;9.50;;;5.10;;
9997;SDS011;5038;53.064;8.624;2023-06-14T03:35:51;8.70;;;5.17;;
9997;SDS011;5038;53.064;8.624;2023-06-14T03:38:20;8.00;;;4.90;;
9997;SDS011;5038;53.064;8.624;2023-06-14T03:40:49;7.47;;;5.00;;
9997;SDS011;5038;53.064;8.624;2023-06-14T03:43:17;6.40;;;5.03;;
9997;SDS011;5038;53.064;8.624;2023-06-14T03:45:45;7.80;;;5.10;;
9997;SDS011;5038;53.064;8.624;2023-06-14T03:48:14;7.40;;;4.67;;
9997;SDS011;5038;53.064;8.624;2023-06-14T03:50:43;8.50;;;5.03;;
9997;SDS011;5038;53.064;8.624;2023-06-14T03:53:12;8.23;;;5.30;;
9997;SDS011;5038;53.064;8.624;2023-06-14T03:55:44;7.63;;;5.13;;
9997;SDS011;5038;53.064;8.624;2023-06-14T03:58:15;7.07;;;4.83;;
9997;SDS011;5038;53.064;8.624;2023-06-14T04:00:44;7.80;;;5.33;;
9997;SDS011;5038;53.064;8.624;2023-06-14T04:03:12;7.60;;;5.13;;
9997;SDS011;5038;53.064;8.624;2023-06-14T04:05:42;8.10;;;4.80;;
9997;SDS011;5038;53.064;8.624;2023-06-14T04:08:17;6.37;;;4.50;;
9997;SDS011;5038;53.064;8.624;2023-06-14T04:10:45;7.77;;;5.40;;
9997;SDS011;5038;53.064;8.624;2023-06-14T04:13:14;8.87;;;5.90;;
9997;SDS011;5038;53.064;8.624;2023-06-14T04:15:42;7.37;;;5.30;;
9997;SDS011;5038;53.064;8.624;2023-06-14T04:18:17;8.67;;;5.60;;
9997;SDS011;5038;53.064;8.624;2023-06-14T04:20:51;7.30;;;5.00;;
9997;SDS011;5038;53.064;8.624;2023-06-14T04:23:20;8.47;;;5.77;;
9997;SDS011;5038;53.064;8.624;2023-06-14T04:25:48;8.30;;;5.80;;
9997;SDS011;5038;53.064;8.624;2023-06-14T04:28:17;7.53;;;5.13;;
9997;SDS011;5038;53.064;8.624;2023-06-14T04:30:46;8.23;;;5.67;;
9997;SDS011;5038;53.064;8.624;2023-06-14T04:33:17;10.47;;;6.43;;
9997;SDS011;5038;53.064;8.624;2023-06-14T04:35:45;8.40;;;5.50;;
9997;SDS011;5038;53.064;8.624;2023-06-14T04:38:19;7.50;;;5.20;;
9997;SDS011;5038;53.064;8.624;2023-06-14T04:40:52;8.50;;;5.60;;
9997;SDS011;5038;53.064;8.624;2023-06-14T04:43:22;8.73;;;5.30;;
9997;SDS011;5038;53.064;8.624;2023-06-14T04:45:53;6.57;;;4.93;;
9997;SDS011;5038;53.064;8.624;2023-06-14T04:48:23;8.87;;;6.37;;
9997;SDS011;5038;53.064;8.624;2023-06-14T04:50:51;8.10;;;6.33;;
9997;SDS011;5038;53.064;8.624;2023-06-14T04:53:21;8.60;;;5.40;;
9997;SDS011;5038;53.064;8.624;2023-06-14T04:55:53;9.03;;;5.50;;
9997;SDS011;5038;53.064;8.624;2023-06-14T04:58:22;8.83;;;5.93;;
9997;SDS011;5038;53.064;8.624;2023-06-14T05:00:51;8.73;;;5.17;;
9997;SDS011;5038;53.064;8.624;2023-06-14T05:03:19;10.90;;;5.90;;
9997;SDS011;5038;53.064;8.624;2023-06-14T05:05:48;8.47;;;6.33;;
9997;SDS011;5038;53.064;8.624;2023-06-14T05:08:16;7.63;;;5.40;;
9997;SDS011;5038;53.064;8.624;2023-06-14T05:10:46;11.70;;;5.60;;
9997;SDS011;5038;53.064;8.624;2023-06-14T05:13:15;8.27;;;5.40;;
9997;SDS011;5038;53.064;8.624;2023-06-14T05:15:45;10.90;;;5.40;;
9997;SDS011;5038;53.064;8.624;2023-06-14T05:18:13;7.50;;;5.50;;
9997;SDS011;5038;53.064;8.624;2023-06-14T05:20:42;8.27;;;6.20;;
9997;SDS011;5038;53.064;8.624;2023-06-14T05:23:10;8.17;;;5.43;;
9997;SDS011;5038;53.064;8.624;2023-06-14T05:25:42;11.70;;;5.73;;
9997;SDS011;5038;53.064;8.624;2023-06-14T05:28:13;10.70;;;5.50;;
9997;SDS011;5038;53.064;8.624;2023-06-14T05:30:41;8.17;;;5.07;;
9997;SDS011;5038;53.064;8.624;2023-06-14T05:33:09;7.00;;;5.07;;
9997;SDS011;5038;53.064;8.624;2023-06-14T05:35:37;6.53;;;5.13;;
9997;SDS011;5038;53.064;8.624;2023-06-14T05:38:05;8.80;;;5.00;;
9997;SDS011;5038;53.064;8.624;2023-06-14T05:40:34;9.03;;;5.20;;
9997;SDS011;5038;53.064;8.624;2023-06-14T05:43:02;9.30;;;5.17;;
9997;SDS011;5038;53.064;8.624;2023-06-14T05:45:31;7.70;;;5.53;;
9997;SDS011;5038;53.064;8.624;2023-06-14T05:47:59;10.70;;;5.10;;
9997;SDS011;5038;53.064;8.624;2023-06-14T05:50:28;8.53;;;5.10;;
9997;SDS011;5038;53.064;8.624;2023-06-14T05:52:56;9.23;;;4.90;;
9997;SDS011;5038;53.064;8.624;2023-06-14T05:55:24;8.10;;;4.47;;
9997;SDS011;5038;53.064;8.624;2023-06-14T05:57:52;6.40;;;4.67;;
9997;SDS011;5038;53.064;8.624;2023-06-14T06:00:20;9.47;;;4.77;;
9997;SDS011;5038;53.064;8.624;2023-06-14T06:02:50;10.50;;;5.20;;
9997;SDS011;5038;53.064;8.624;2023-06-14T06:05:18;7.53;;;5.30;;
9997;SDS011;5038;53.064;8.624;2023-06-14T06:07:47;9.70;;;5.43;;
9997;SDS011;5038;53.064;8.624;2023-06-14T06:10:15;8.00;;;4.20;;
9997;SDS011;5038;53.064;8.624;2023-06-14T06:12:43;7.13;;;4.87;;
9997;SDS011;5038;53.064;8.624;2023-06-14T06:15:13;8.30;;;4.70;;
9997;SDS011;5038;53.064;8.624;2023-06-14T06:17:42;8.87;;;4.50;;
9997;SDS011;5038;53.064;8.624;2023-06-14T06:20:23;6.73;;;4.67;;
9997;SDS011;5038;53.064;8.624;2023-06-14T06:22:55;7.70;;;4.80;;
9997;SDS011;5038;53.064;8.624;2023-06-14T06:25:24;8.70;;;4.80;;
9997;SDS011;5038;53.064;8.624;2023-06-14T06:27:53;10.67;;;5.07;;
9997;SDS011;5038;53.064;8.624;2023-06-14T06:30:22;6.20;;;4.30;;
9997;SDS011;5038;53.064;8.624;2023-06-14T06:32:51;6.80;;;4.60;;
9997;SDS011;5038;53.064;8.624;2023-06-14T06:35:19;7.17;;;4.40;;
9997;SDS011;5038;53.064;8.624;2023-06-14T06:37:49;7.53;;;4.80;;
9997;SDS011;5038;53.064;8.624;2023-06-14T06:40:17;7.10;;;4.13;;
9997;SDS011;5038;53.064;8.624;2023-06-14T06:42:45;6.60;;;4.30;;
9997;SDS011;5038;53.064;8.624;2023-06-14T06:45:16;8.43;;;4.00;;
9997;SDS011;5038;53.064;8.624;2023-06-14T06:47:44;7.20;;;3.87;;
9997;SDS011;5038;53.064;8.624;2023-06-14T06:50:13;9.37;;;4.47;;
9997;SDS011;5038;53.064;8.624;2023-06-14T06:52:41;8.93;;;3.97;;
9997;SDS011;5038;53.064;8.624;2023-06-14T06:55:13;9.40;;;3.90;;
9997;SDS011;5038;53.064;8.624;2023-06-14T06:57:41;8.43;;;3.60;;
9997;SDS011;5038;53.064;8.624;2023-06-14T07:00:10;10.53;;;4.33;;
9997;SDS011;5038;53.064;8.624;2023-06-14T07:02:40;13.13;;;5.03;;
9997;SDS011;5038;53.064;8.624;2023-06-14T07:05:08;8.10;;;3.40;;
9997;SDS011;5038;53.064;8.624;2023-06-14T07:07:36;5.10;;;3.60;;
9997;SDS011;5038;53.064;8.624;2023-06-14T07:10:04;6.83;;;4.30;;
9997;SDS011;5038;53.064;8.624;2023-06-14T07:12:35;6.43;;;3.53;;
9997;SDS011;5038;53.064;8.624;2023-06-14T07:15:06;6.17;;;3.83;;
9997;SDS011;5038;53.064;8.624;2023-06-14T07:17:35;5.80;;;3.23;;
9997;SDS011;5038;53.064;8.624;2023-06-14T07:20:04;6.00;;;3.53;;
9997;SDS011;5038;53.064;8.624;2023-06-14T07:22:38;7.20;;;4.23;;
9997;SDS011;5038;53.064;8.624;2023-06-14T07:25:08;6.27;;;4.10;;
9997;SDS011;5038;53.064;8.624;2023-06-14T07:27:40;5.50;;;3.67;;
9997;SDS011;5038;53.064;8.624;2023-06-14T07:30:08;5.23;;;3.27;;
9997;SDS011;5038;53.064;8.624;2023-06-14T07:32:37;7.10;;;3.70;;
9997;SDS011;5038;53.064;8.624;2023-06-14T07:35:06;5.80;;;3.40;;
9997;SDS011;5038;53.064;8.624;2023-06-14T07:37:35;7.37;;;3.83;;
9997;SDS011;5038;53.064;8.624;2023-06-14T07:40:04;6.60;;;3.03;;
9997;SDS011;5038;53.064;8.624;2023-06-14T07:42:33;5.50;;;3.30;;
9997;SDS011;5038;53.064;8.624;2023-06-14T07:45:04;8.60;;;4.00;;
9997;SDS011;5038;53.064;8.624;2023-06-14T07:47:33;4.90;;;2.70;;
9997;SDS011;5038;53.064;8.624;2023-06-14T07:50:02;6.63;;;2.60;;
9997;SDS011;5038;53.064;8.624;2023-06-14T07:52:32;4.50;;;2.83;;
9997;SDS011;5038;53.064;8.624;2023-06-14T07:55:00;5.80;;;3.80;;
9997;SDS011;5038;53.064;8.624;2023-06-14T07:57:28;5.40;;;3.07;;
9997;SDS011;5038;53.064;8.624;2023-06-14T07:59:56;5.57;;;3.03;;
9997;SDS011;5038;53.064;8.624;2023-06-14T08:02:26;5.20;;;2.40;;
9997;SDS011;5038;53.064;8.624;2023-06-14T08:04:54;4.83;;;2.80;;
9997;SDS011;5038;53.064;8.624;2023-06-14T08:07:22;5.47;;;3.03;;
9997;SDS011;5038;53.064;8.624;2023-06-14T08:09:50;4.37;;;2.70;;
9997;SDS011;5038;53.064;8.624;2023-06-14T08:12:19;4.93;;;2.40;;
9997;SDS011;5038;53.064;8.624;2023-06-14T08:14:47;5.70;;;2.80;;
9997;SDS011;5038;53.064;8.624;2023-06-14T08:17:28;4.93;;;2.97;;
9997;SDS011;5038;53.064;8.624;2023-06-14T08:19:56;4.77;;;3.07;;
9997;SDS011;5038;53.064;8.624;2023-06-14T08:22:25;5.20;;;2.80;;
9997;SDS011;5038;53.064;8.624;2023-06-14T08:24:58;5.60;;;2.70;;
9997;SDS011;5038;53.064;8.624;2023-06-14T08:27:26;5.27;;;2.90;;
9997;SDS011;5038;53.064;8.624;2023-06-14T08:29:56;7.50;;;2.80;;
9997;SDS011;5038;53.064;8.624;2023-06-14T08:32:24;5.17;;;3.10;;
9997;SDS011;5038;53.064;8.624;2023-06-14T08:34:54;4.60;;;2.67;;
9997;SDS011;5038;53.064;8.624;2023-06-14T08:37:31;6.33;;;3.10;;
9997;SDS011;5038;53.064;8.624;2023-06-14T08:39:59;5.00;;;2.80;;
9997;SDS011;5038;53.064;8.624;2023-06-14T08:42:32;6.77;;;2.73;;
9997;SDS011;5038;53.064;8.624;2023-06-14T08:45:02;5.23;;;3.10;;
9997;SDS011;5038;53.064;8.624;2023-06-14T08:47:31;8.33;;;2.87;;
9997;SDS011;5038;53.064;8.624;2023-06-14T08:50:09;4.53;;;2.50;;
9997;SDS011;5038;53.064;8.624;2023-06-14T08:52:54;5.20;;;2.70;;
9997;SDS011;5038;53.064;8.624;2023-06-14T08:55:23;8.30;;;2.90;;
9997;SDS011;5038;53.064;8.624;2023-06-14T08:57:53;5.03;;;2.97;;
9997;SDS011;5038;53.064;8.624;2023-06-14T09:00:24;4.57;;;2.60;;
9997;SDS011;5038;53.064;8.624;2023-06-14T09:02:53;5.10;;;2.90;;
9997;SDS011;5038;53.064;8.624;2023-06-14T09:05:26;5.20;;;2.77;;
9997;SDS011;5038;53.064;8.624;2023-06-14T09:07:55;5.30;;;3.10;;
9997;SDS011;5038;53.064;8.624;2023-06-14T09:10:31;6.63;;;3.67;;
9997;SDS011;5038;53.064;8.624;2023-06-14T09:13:01;6.40;;;3.10;;
9997;SDS011;5038;53.064;8.624;2023-06-14T09:15:29;6.00;;;3.00;;
9997;SDS011;5038;53.064;8.624;2023-06-14T09:17:58;6.47;;;2.93;;
9997;SDS011;5038;53.064;8.624;2023-06-14T09:20:31;8.23;;;2.97;;
9997;SDS011;5038;53.064;8.624;2023-06-14T09:23:00;5.63;;;3.47;;
9997;SDS011;5038;53.064;8.624;2023-06-14T09:25:28;5.73;;;3.47;;
9997;SDS011;5038;53.064;8.624;2023-06-14T09:28:06;7.10;;;3.07;;
9997;SDS011;5038;53.064;8.624;2023-06-14T09:30:35;5.97;;;3.00;;
9997;SDS011;5038;53.064;8.624;2023-06-14T09:33:04;4.30;;;2.80;;
9997;SDS011;5038;53.064;8.624;2023-06-14T09:35:34;4.33;;;2.60;;
9997;SDS011;5038;53.064;8.624;2023-06-14T09:38:03;6.00;;;3.17;;
9997;SDS011;5038;53.064;8.624;2023-06-14T09:40:34;5.60;;;3.70;;
9997;SDS011;5038;53.064;8.624;2023-06-14T09:43:06;5.97;;;3.00;;
9997;SDS011;5038;53.064;8.624;2023-06-14T09:45:37;4.97;;;3.00;;
9997;SDS011;5038;53.064;8.624;2023-06-14T09:48:07;5.30;;;3.20;;
9997;SDS011;5038;53.064;8.624;2023-06-14T09:50:37;6.53;;;2.73;;
9997;SDS011;5038;53.064;8.624;2023-06-14T09:53:07;5.90;;;2.63;;
9997;SDS011;5038;53.064;8.624;2023-06-14T09:55:38;4.70;;;2.53;;
9997;SDS011;5038;53.064;8.624;2023-06-14T09:58:09;6.00;;;2.80;;
9997;SDS011;5038;53.064;8.624;2023-06-14T10:00:39;4.40;;;2.93;;
9997;SDS011;5038;53.064;8.624;2023-06-14T10:03:11;5.00;;;3.03;;
9997;SDS011;5038;53.064;8.624;2023-06-14T10:05:43;4.43;;;2.90;;
9997;SDS011;5038;53.064;8.624;2023-06-14T10:08:14;5.53;;;3.50;;
9997;SDS011;5038;53.064;8.624;2023-06-14T10:10:44;5.93;;;3.17;;
9997;SDS011;5038;53.064;8.624;2023-06-14T10:13:12;7.23;;;2.97;;
9997;SDS011;5038;53.064;8.624;2023-06-14T10:15:43;5.37;;;3.17;;
9997;SDS011;5038;53.064;8.624;2023-06-14T10:18:21;7.17;;;2.90;;
9997;SDS011;5038;53.064;8.624;2023-06-14T10:20:58;4.50;;;2.70;;
9997;SDS011;5038;53.064;8.624;2023-06-14T10:23:37;7.07;;;3.13;;
9997;SDS011;5038;53.064;8.624;2023-06-14T10:26:17;5.50;;;2.90;;
9997;SDS011;5038;53.064;8.624;2023-06-14T10:28:55;6.30;;;3.47;;
9997;SDS011;5038;53.064;8.624;2023-06-14T10:31:39;5.13;;;3.20;;
9997;SDS011;5038;53.064;8.624;2023-06-14T10:34:09;5.87;;;3.10;;
9997;SDS011;5038;53.064;8.624;2023-06-14T10:36:40;5.20;;;3.73;;
9997;SDS011;5038;53.064;8.624;2023-06-14T10:39:10;7.67;;;3.20;;
9997;SDS011;5038;53.064;8.624;2023-06-14T10:41:52;6.30;;;3.30;;
9997;SDS011;5038;53.064;8.624;2023-06-14T10:44:32;7.20;;;3.20;;
9997;SDS011;5038;53.064;8.624;2023-06-14T10:47:08;5.50;;;3.23;;
9997;SDS011;5038;53.064;8.624;2023-06-14T10:49:40;7.03;;;3.60;;
9997;SDS011;5038;53.064;8.624;2023-06-14T10:52:11;5.20;;;2.97;;
9997;SDS011;5038;53.064;8.624;2023-06-14T10:57:43;5.80;;;3.50;;
9997;SDS011;5038;53.064;8.624;2023-06-14T11:00:18;5.73;;;3.30;;
9997;SDS011;5038;53.064;8.624;2023-06-14T11:05:56;7.07;;;3.77;;
9997;SDS011;5038;53.064;8.624;2023-06-14T11:08:31;10.60;;;4.23;;
9997;SDS011;5038;53.064;8.624;2023-06-14T11:11:23;5.43;;;3.90;;
9997;SDS011;5038;53.064;8.624;2023-06-14T11:13:56;5.20;;;3.63;;
9997;SDS011;5038;53.064;8.624;2023-06-14T11:16:25;10.33;;;5.23;;
9997;SDS011;5038;53.064;8.624;2023-06-14T11:18:54;8.03;;;4.23;;
9997;SDS011;5038;53.064;8.624;2023-06-14T11:21:23;7.70;;;4.03;;
9997;SDS011;5038;53.064;8.624;2023-06-14T11:23:59;6.33;;;3.60;;
9997;SDS011;5038;53.064;8.624;2023-06-14T11:26:27;7.70;;;3.80;;
9997;SDS011;5038;53.064;8.624;2023-06-14T11:28:56;6.40;;;4.17;;
9997;SDS011;5038;53.064;8.624;2023-06-14T11:31:26;5.70;;;3.43;;
9997;SDS011;5038;53.064;8.624;2023-06-14T11:33:55;6.03;;;3.90;;
9997;SDS011;5038;53.064;8.624;2023-06-14T11:36:26;6.37;;;3.80;;
9997;SDS011;5038;53.064;8.624;2023-06-14T11:39:01;9.30;;;3.80;;
9997;SDS011;5038;53.064;8.624;2023-06-14T11:41:32;6.87;;;3.70;;
9997;SDS011;5038;53.064;8.624;2023-06-14T11:44:02;6.00;;;4.10;;
9997;SDS011;5038;53.064;8.624;2023-06-14T11:46:30;9.23;;;3.77;;
9997;SDS011;5038;53.064;8.624;2023-06-14T11:48:58;8.90;;;4.10;;
9997;SDS011;5038;53.064;8.624;2023-06-14T11:51:29;8.53;;;3.83;;
9997;SDS011;5038;53.064;8.624;2023-06-14T11:53:58;8.13;;;3.77;;
9997;SDS011;5038;53.064;8.624;2023-06-14T11:56:28;12.00;;;5.07;;
9997;SDS011;5038;53.064;8.624;2023-06-14T11:58:56;6.10;;;4.00;;
9997;SDS011;5038;53.064;8.624;2023-06-14T12:01:24;8.77;;;4.20;;
9997;SDS011;5038;53.064;8.624;2023-06-14T12:03:53;9.87;;;3.63;;
9997;SDS011;5038;53.064;8.624;2023-06-14T12:06:25;6.30;;;3.90;;
9997;SDS011;5038;53.064;8.624;2023-06-14T12:09:02;6.43;;;4.07;;
9997;SDS011;5038;53.064;8.624;2023-06-14T12:11:34;5.50;;;3.90;;
9997;SDS011;5038;53.064;8.624;2023-06-14T12:14:03;8.47;;;4.23;;
9997;SDS011;5038;53.064;8.624;2023-06-14T12:16:34;5.67;;;4.07;;
9997;SDS011;5038;53.064;8.624;2023-06-14T12:19:12;7.90;;;3.87;;
9997;SDS011;5038;53.064;8.624;2023-06-14T12:21:41;8.63;;;4.30;;
9997;SDS011;5038;53.064;8.624;2023-06-14T12:24:11;7.47;;;3.70;;
9997;SDS011;5038;53.064;8.624;2023-06-14T12:26:41;8.27;;;4.83;;
9997;SDS011;5038;53.064;8.624;2023-06-14T12:29:10;6.40;;;3.77;;
9997;SDS011;5038;53.064;8.624;2023-06-14T12:31:39;5.97;;;3.53;;
9997;SDS011;5038;53.064;8.624;2023-06-14T12:34:09;7.03;;;4.13;;
9997;SDS011;5038;53.064;8.624;2023-06-14T12:36:37;12.50;;;4.60;;
9997;SDS011;5038;53.064;8.624;2023-06-14T12:39:11;9.60;;;3.90;;
9997;SDS011;5038;53.064;8.624;2023-06-14T12:41:41;8.80;;;4.50;;
9997;SDS011;5038;53.064;8.624;2023-06-14T12:44:10;6.87;;;4.37;;
9997;SDS011;5038;53.064;8.624;2023-06-14T12:46:38;5.60;;;3.80;;
9997;SDS011;5038;53.064;8.624;2023-06-14T12:49:08;7.17;;;3.90;;
9997;SDS011;5038;53.064;8.624;2023-06-14T12:51:37;11.50;;;4.67;;
9997;SDS011;5038;53.064;8.624;2023-06-14T12:54:05;7.93;;;3.53;;
9997;SDS011;5038;53.064;8.624;2023-06-14T12:56:34;8.40;;;4.33;;
9997;SDS011;5038;53.064;8.624;2023-06-14T12:59:04;9.17;;;4.50;;
9997;SDS011;5038;53.064;8.624;2023-06-14T13:01:33;6.77;;;4.17;;
9997;SDS011;5038;53.064;8.624;2023-06-14T13:04:01;7.80;;;4.30;;
9997;SDS011;5038;53.064;8.624;2023-06-14T13:06:29;5.40;;;3.90;;
9997;SDS011;5038;53.064;8.624;2023-06-14T13:08:58;6.90;;;3.87;;
9997;SDS011;5038;53.064;8.624;2023-06-14T13:11:28;8.23;;;4.03;;
9997;SDS011;5038;53.064;8.624;2023-06-14T13:13:56;7.13;;;4.10;;
9997;SDS011;5038;53.064;8.624;2023-06-14T13:16:26;5.87;;;3.47;;
9997;SDS011;5038;53.064;8.624;2023-06-14T13:18:54;7.27;;;4.13;;
9997;SDS011;5038;53.064;8.624;2023-06-14T13:21:22;9.10;;;3.90;;
9997;SDS011;5038;53.064;8.624;2023-06-14T13:23:51;10.83;;;3.93;;
9997;SDS011;5038;53.064;8.624;2023-06-14T13:26:20;6.23;;;4.27;;
9997;SDS011;5038;53.064;8.624;2023-06-14T13:28:48;7.60;;;4.40;;
9997;SDS011;5038;53.064;8.624;2023-06-14T13:31:17;6.57;;;3.80;;
9997;SDS011;5038;53.064;8.624;2023-06-14T13:33:47;8.40;;;4.87;;
9997;SDS011;5038;53.064;8.624;2023-06-14T13:36:15;7.10;;;4.30;;
9997;SDS011;5038;53.064;8.624;2023-06-14T13:38:43;7.80;;;3.93;;
9997;SDS011;5038;53.064;8.624;2023-06-14T13:41:14;9.70;;;4.30;;
9997;SDS011;5038;53.064;8.624;2023-06-14T13:43:42;8.70;;;4.80;;
9997;SDS011;5038;53.064;8.624;2023-06-14T13:46:10;5.30;;;3.97;;
9997;SDS011;5038;53.064;8.624;2023-06-14T13:48:39;8.93;;;4.37;;
9997;SDS011;5038;53.064;8.624;2023-06-14T13:51:08;8.47;;;4.40;;
9997;SDS011;5038;53.064;8.624;2023-06-14T13:53:37;5.50;;;4.47;;
9997;SDS011;5038;53.064;8.624;2023-06-14T13:56:06;6.83;;;4.63;;
9997;SDS011;5038;53.064;8.624;2023-06-14T13:58:34;5.27;;;3.80;;
9997;SDS011;5038;53.064;8.624;2023-06-14T14:01:02;8.77;;;4.37;;
9997;SDS011;5038;53.064;8.624;2023-06-14T14:03:30;8.50;;;4.60;;
9997;SDS011;5038;53.064;8.624;2023-06-14T14:05:58;7.40;;;4.17;;
9997;SDS011;5038;53.064;8.624;2023-06-14T14:08:29;6.40;;;4.90;;
9997;SDS011;5038;53.064;8.624;2023-06-14T14:10:58;7.13;;;5.50;;
9997;SDS011;5038;53.064;8.624;2023-06-14T14:13:26;5.70;;;4.10;;
9997;SDS011;5038;53.064;8.624;2023-06-14T14:15:54;6.17;;;4.03;;
9997;SDS011;5038;53.064;8.624;2023-06-14T14:18:22;6.27;;;4.17;;
9997;SDS011;5038;53.064;8.624;2023-06-14T14:20:51;7.47;;;4.10;;
9997;SDS011;5038;53.064;8.624;2023-06-14T14:23:19;6.53;;;4.33;;
9997;SDS011;5038;53.064;8.624;2023-06-14T14:25:48;6.30;;;4.40;;
9997;SDS011;5038;53.064;8.624;2023-06-14T14:28:17;8.60;;;4.27;;
9997;SDS011;5038;53.064;8.624;2023-06-14T14:30:46;6.13;;;3.80;;
9997;SDS011;5038;53.064;8.624;2023-06-14T14:33:15;8.40;;;4.80;;
9997;SDS011;5038;53.064;8.624;2023-06-14T14:35:44;5.20;;;3.57;;
9997;SDS011;5038;53.064;8.624;2023-06-14T14:38:13;5.80;;;4.30;;
9997;SDS011;5038;53.064;8.624;2023-06-14T14:40:42;7.03;;;4.77;;
9997;SDS011;5038;53.064;8.624;2023-06-14T14:43:12;7.33;;;4.17;;
9997;SDS011;5038;53.064;8.624;2023-06-14T14:45:40;6.57;;;5.20;;
9997;SDS011;5038;53.064;8.624;2023-06-14T14:48:08;7.60;;;4.30;;
9997;SDS011;5038;53.064;8.624;2023-06-14T14:50:36;7.53;;;3.90;;
9997;SDS011;5038;53.064;8.624;2023-06-14T14:53:04;6.30;;;4.53;;
9997;SDS011;5038;53.064;8.624;2023-06-14T14:55:33;5.97;;;4.07;;
9997;SDS011;5038;53.064;8.624;2023-06-14T14:58:03;5.97;;;4.03;;
9997;SDS011;5038;53.064;8.624;2023-06-14T15:00:34;5.60;;;4.03;;
9997;SDS011;5038;53.064;8.624;2023-06-14T15:03:03;5.17;;;4.17;;
9997;SDS011;5038;53.064;8.624;2023-06-14T15:05:31;5.03;;;3.60;;
9997;SDS011;5038;53.064;8.624;2023-06-14T15:07:59;6.17;;;4.80;;
9997;SDS011;5038;53.064;8.624;2023-06-14T15:10:27;5.10;;;4.20;;
9997;SDS011;5038;53.064;8.624;2023-06-14T15:12:55;5.60;;;3.60;;
9997;SDS011;5038;53.064;8.624;2023-06-14T15:15:24;6.70;;;4.17;;
9997;SDS011;5038;53.064;8.624;2023-06-14T15:17:53;7.30;;;4.57;;
9997;SDS011;5038;53.064;8.624;2023-06-14T15:20:21;8.00;;;4.20;;
9997;SDS011;5038;53.064;8.624;2023-06-14T15:22:49;7.03;;;4.20;;
9997;SDS011;5038;53.064;8.624;2023-06-14T15:25:18;6.83;;;4.30;;
9997;SDS011;5038;53.064;8.624;2023-06-14T15:27:47;4.77;;;3.77;;
9997;SDS011;5038;53.064;8.624;2023-06-14T15:30:15;5.60;;;4.17;;
9997;SDS011;5038;53.064;8.624;2023-06-14T15:32:44;6.90;;;4.40;;
9997;SDS011;5038;53.064;8.624;2023-06-14T15:35:14;7.20;;;4.07;;
9997;SDS011;5038;53.064;8.624;2023-06-14T15:37:44;6.13;;;4.13;;